createdAt,value
2023-04-18T00:02:00.058Z,63.78
2023-04-18T00:04:28.092Z,63.64
2023-04-18T00:06:55.996Z,63.58
2023-04-18T00:09:24.720Z,63.54
2023-04-18T00:11:52.800Z,63.56
2023-04-18T00:14:20.903Z,63.39
2023-04-18T00:16:48.138Z,63.56
2023-04-18T00:19:15.756Z,63.60
2023-04-18T00:21:47.484Z,63.44
2023-04-18T00:24:14.782Z,63.81
2023-04-18T00:26:42.079Z,63.89
2023-04-18T00:29:09.144Z,63.59
2023-04-18T00:31:36.288Z,63.69
2023-04-18T00:34:03.389Z,63.98
2023-04-18T00:36:30.555Z,63.59
2023-04-18T00:38:57.953Z,63.90
2023-04-18T00:41:28.200Z,63.88
2023-04-18T00:43:55.479Z,63.68
2023-04-18T00:46:22.885Z,63.69
2023-04-18T00:48:50.051Z,63.64
2023-04-18T00:51:17.216Z,63.56
2023-04-18T00:53:44.986Z,63.65
2023-04-18T00:56:12.456Z,63.69
2023-04-18T00:58:41.165Z,63.63
2023-04-18T01:01:09.965Z,63.73
2023-04-18T01:03:37.644Z,63.86
2023-04-18T01:06:05.196Z,63.78
2023-04-18T01:08:32.524Z,63.66
2023-04-18T01:11:00.517Z,63.48
2023-04-18T01:13:28.411Z,63.38
2023-04-18T01:15:55.923Z,63.51
2023-04-18T01:18:23.169Z,63.34
2023-04-18T01:20:52.514Z,63.42
2023-04-18T01:23:20.509Z,63.51
2023-04-18T01:25:49.512Z,63.37
2023-04-18T01:28:16.681Z,63.30
2023-04-18T01:30:43.804Z,63.52
2023-04-18T01:33:11.067Z,63.34
2023-04-18T01:35:38.247Z,63.59
2023-04-18T01:38:05.309Z,63.74
2023-04-18T01:40:32.514Z,63.79
2023-04-18T01:43:01.005Z,63.71
2023-04-18T01:45:28.355Z,63.94
2023-04-18T01:47:55.591Z,64.06
2023-04-18T01:50:22.886Z,64.00
2023-04-18T01:52:49.994Z,64.30
2023-04-18T01:55:17.092Z,64.41
2023-04-18T01:57:44.360Z,64.52
2023-04-18T02:00:12.223Z,64.67
2023-04-18T02:02:39.443Z,64.58
2023-04-18T02:05:07.335Z,64.66
2023-04-18T02:07:34.493Z,65.13
2023-04-18T02:10:02.550Z,65.22
2023-04-18T02:12:31.710Z,64.95
2023-04-18T02:14:59.797Z,65.06
2023-04-18T02:17:27.686Z,65.04
2023-04-18T02:19:54.939Z,65.24
2023-04-18T02:22:22.138Z,65.26
2023-04-18T02:24:49.351Z,65.32
2023-04-18T02:27:18.200Z,65.33
2023-04-18T02:29:45.295Z,65.30
2023-04-18T02:32:12.446Z,65.45
2023-04-18T02:34:39.605Z,65.55
2023-04-18T02:37:06.688Z,65.75
2023-04-18T02:39:33.953Z,65.52
2023-04-18T02:42:01.802Z,65.83
2023-04-18T02:44:30.152Z,65.94
2023-04-18T02:46:57.485Z,65.87
2023-04-18T02:49:24.796Z,66.15
2023-04-18T02:51:56.042Z,66.20
2023-04-18T02:54:23.417Z,66.50
2023-04-18T02:56:53.340Z,66.61
2023-04-18T02:59:20.568Z,66.54
2023-04-18T03:01:47.716Z,66.65
2023-04-18T03:04:14.992Z,66.74
2023-04-18T03:06:42.174Z,66.77
2023-04-18T03:09:09.419Z,66.86
2023-04-18T03:11:36.518Z,66.97
2023-04-18T03:14:03.614Z,67.00
2023-04-18T03:16:31.216Z,67.02
2023-04-18T03:18:59.620Z,67.31
2023-04-18T03:21:26.834Z,67.16
2023-04-18T03:23:54.087Z,67.22
2023-04-18T03:26:21.573Z,67.52
2023-04-18T03:28:48.660Z,67.57
2023-04-18T03:31:15.820Z,67.69
2023-04-18T03:33:44.362Z,67.70
2023-04-18T03:36:12.698Z,67.73
2023-04-18T03:38:40.840Z,68.22
2023-04-18T03:41:07.928Z,68.20
2023-04-18T03:43:35.048Z,68.12
2023-04-18T05:04:43.789Z,69.63
2023-04-18T05:07:11.103Z,69.92
2023-04-18T05:09:38.202Z,70.06
2023-04-18T05:12:05.801Z,70.24
2023-04-18T05:14:33.044Z,70.34
2023-04-18T05:17:00.415Z,70.38
2023-04-18T05:19:27.962Z,70.49
2023-04-18T05:21:55.037Z,70.44
2023-04-18T05:24:22.210Z,70.52
2023-04-18T05:26:49.415Z,70.56
2023-04-18T05:29:16.497Z,70.66
2023-04-18T05:31:43.709Z,70.81
2023-04-18T05:34:10.804Z,70.81
2023-04-18T05:36:38.062Z,70.71
2023-04-18T05:39:05.809Z,70.84
2023-04-18T05:41:32.978Z,70.68
2023-04-18T05:44:05.247Z,70.78
2023-04-18T05:46:33.407Z,70.71
2023-04-18T05:49:00.847Z,71.10
2023-04-18T05:51:29.183Z,71.02
2023-04-18T05:53:56.488Z,71.03
2023-04-18T05:56:23.617Z,70.99
2023-04-18T05:58:51.522Z,71.19
2023-04-18T06:01:21.683Z,71.05
2023-04-18T06:03:49.012Z,71.30
2023-04-18T06:06:16.390Z,71.11
2023-04-18T06:08:43.720Z,71.12
2023-04-18T06:11:11.027Z,71.16
2023-04-18T06:13:38.218Z,71.37
2023-04-18T06:16:06.117Z,71.41
2023-04-18T06:18:33.445Z,71.38
2023-04-18T06:21:00.734Z,71.19
2023-04-18T06:23:27.824Z,71.11
2023-04-18T06:25:55.039Z,71.17
2023-04-18T06:28:22.387Z,71.49
2023-04-18T06:30:49.469Z,71.30
2023-04-18T06:33:16.579Z,71.34
2023-04-18T06:35:43.834Z,71.35
2023-04-18T06:38:14.042Z,71.52
2023-04-18T06:40:41.150Z,71.45
2023-04-18T06:43:08.296Z,71.42
2023-04-18T06:45:36.074Z,71.46
2023-04-18T06:48:07.845Z,71.49
2023-04-18T06:50:34.892Z,71.71
2023-04-18T06:53:02.415Z,71.49
2023-04-18T06:55:29.877Z,71.30
2023-04-18T06:57:56.974Z,71.72
2023-04-18T07:00:24.106Z,71.57
2023-04-18T07:02:51.367Z,71.67
2023-04-18T07:05:18.819Z,71.57
2023-04-18T07:07:46.163Z,71.44
2023-04-18T07:10:13.477Z,71.69
2023-04-18T07:12:40.686Z,71.66
2023-04-18T07:15:08.644Z,71.60
2023-04-18T07:17:35.863Z,71.72
2023-04-18T07:20:03.378Z,71.98
2023-04-18T07:22:30.509Z,71.13
2023-04-18T07:24:57.814Z,70.51
2023-04-18T07:27:24.912Z,69.45
2023-04-18T07:29:52.005Z,68.17
2023-04-18T07:32:19.254Z,67.23
2023-04-18T07:34:46.368Z,65.90
2023-04-18T07:37:15.082Z,64.42
2023-04-18T07:39:42.335Z,63.88
2023-04-18T07:42:10.124Z,63.54
2023-04-18T07:44:37.289Z,63.15
2023-04-18T07:47:06.814Z,63.36
2023-04-18T07:49:33.934Z,63.02
2023-04-18T07:52:01.088Z,63.61
2023-04-18T07:54:28.335Z,63.66
2023-04-18T07:56:55.840Z,64.03
2023-04-18T07:59:23.083Z,63.95
2023-04-18T08:01:50.242Z,63.98
2023-04-18T08:04:17.629Z,64.22
2023-04-18T08:06:44.855Z,64.41
2023-04-18T08:09:12.791Z,64.75
2023-04-18T08:11:42.588Z,64.95
2023-04-18T08:14:09.663Z,65.14
2023-04-18T08:16:37.693Z,65.05
2023-04-18T08:19:04.795Z,65.23
2023-04-18T08:21:32.733Z,65.23
2023-04-18T08:23:59.993Z,65.56
2023-04-18T08:26:27.619Z,65.60
2023-04-18T08:28:54.769Z,65.84
2023-04-18T08:31:22.171Z,65.99
2023-04-18T08:33:49.324Z,66.30
2023-04-18T08:36:16.616Z,66.27
2023-04-18T08:38:43.781Z,66.48
2023-04-18T08:41:10.926Z,66.63
2023-04-18T08:43:38.447Z,66.49
2023-04-18T08:46:05.774Z,66.15
2023-04-18T08:48:33.033Z,66.19
2023-04-18T08:51:01.727Z,66.12
2023-04-18T08:53:29.383Z,65.95
2023-04-18T08:55:57.497Z,65.68
2023-04-18T08:58:27.328Z,65.69
2023-04-18T09:00:55.070Z,65.96
2023-04-18T09:03:42.539Z,65.94
2023-04-18T09:06:18.835Z,65.99
2023-04-18T09:09:00.437Z,66.08
2023-04-18T09:11:29.982Z,65.99
2023-04-18T09:13:59.234Z,65.79
2023-04-18T09:16:28.021Z,65.81
2023-04-18T09:19:18.776Z,65.80
2023-04-18T09:21:47.378Z,65.89
2023-04-18T09:24:21.196Z,65.89
2023-04-18T09:26:49.971Z,66.16
2023-04-18T09:29:18.697Z,66.06
2023-04-18T09:32:02.224Z,66.11
2023-04-18T09:34:29.820Z,66.20
2023-04-18T09:37:14.056Z,65.95
2023-04-18T09:39:44.234Z,65.93
2023-04-18T09:42:11.923Z,66.02
2023-04-18T09:44:59.756Z,65.81
2023-04-18T09:47:28.578Z,65.51
2023-04-18T09:49:56.340Z,65.46
2023-04-18T09:52:26.126Z,65.46
2023-04-18T09:55:00.464Z,65.10
2023-04-18T09:57:29.988Z,65.24
2023-04-18T10:00:25.540Z,64.92
2023-04-18T10:03:10.065Z,64.57
2023-04-18T10:05:40.695Z,64.88
2023-04-18T10:08:08.510Z,64.53
2023-04-18T10:10:38.579Z,64.77
2023-04-18T10:13:08.652Z,64.74
2023-04-18T10:15:35.991Z,64.78
2023-04-18T10:18:09.651Z,64.93
2023-04-18T10:20:37.092Z,64.61
2023-04-18T10:23:41.468Z,64.15
2023-04-18T10:26:10.324Z,64.28
2023-04-18T10:29:04.155Z,64.21
2023-04-18T10:31:39.563Z,64.24
2023-04-18T10:34:07.466Z,64.10
2023-04-18T10:36:34.722Z,64.24
2023-04-18T10:39:22.510Z,64.03
2023-04-18T10:41:52.647Z,64.01
2023-04-18T10:44:25.054Z,63.99
2023-04-18T10:46:52.147Z,63.71
2023-04-18T10:49:27.347Z,63.64
2023-04-18T10:52:00.913Z,63.27
2023-04-18T10:54:59.269Z,63.25
2023-04-18T10:57:42.025Z,63.41
2023-04-18T11:00:12.811Z,63.41
2023-04-18T11:02:40.989Z,63.18
2023-04-18T11:05:10.155Z,62.93
2023-04-18T11:07:46.345Z,63.00
2023-04-18T11:10:16.353Z,62.99
2023-04-18T11:12:43.425Z,62.83
2023-04-18T11:15:17.789Z,62.67
2023-04-18T11:17:44.996Z,62.79
2023-04-18T11:20:14.959Z,62.55
2023-04-18T11:23:04.571Z,62.55
2023-04-18T11:25:37.131Z,62.75
2023-04-18T11:28:05.155Z,63.06
2023-04-18T11:30:40.311Z,62.75
2023-04-18T11:33:09.055Z,62.63
2023-04-18T11:35:45.424Z,62.78
2023-04-18T11:38:14.383Z,62.69
2023-04-18T11:40:49.235Z,62.76
2023-04-18T11:43:22.341Z,62.41
2023-04-18T11:45:58.491Z,62.86
2023-04-18T11:48:41.738Z,62.66
2023-04-18T11:51:34.407Z,61.93
2023-04-18T11:54:02.286Z,62.13
2023-04-18T11:56:29.820Z,62.06
2023-04-18T11:58:56.956Z,61.68
2023-04-18T12:01:27.318Z,61.49
2023-04-18T12:04:06.981Z,61.32
2023-04-18T12:06:53.970Z,61.56
2023-04-18T12:09:25.501Z,61.64
2023-04-18T12:12:03.324Z,61.24
2023-04-18T12:14:30.684Z,61.12
2023-04-18T12:16:57.807Z,61.15
2023-04-18T12:19:30.086Z,60.91
2023-04-18T12:22:03.331Z,60.89
2023-04-18T12:24:32.422Z,60.99
2023-04-18T12:26:59.899Z,60.97
2023-04-18T12:29:29.026Z,61.21
2023-04-18T12:31:56.920Z,61.35
2023-04-18T12:34:24.484Z,61.21
2023-04-18T12:36:52.505Z,61.23
2023-04-18T12:39:19.652Z,60.90
2023-04-18T12:41:49.631Z,61.02
2023-04-18T12:44:17.374Z,61.22
2023-04-18T12:46:44.517Z,60.94
2023-04-18T12:49:11.610Z,60.86
2023-04-18T12:51:38.710Z,60.88
2023-04-18T12:54:05.836Z,60.92
2023-04-18T12:56:32.929Z,60.97
2023-04-18T12:59:00.002Z,60.83
2023-04-18T13:01:28.014Z,60.89
2023-04-18T13:04:08.223Z,60.63
2023-04-18T13:06:38.604Z,60.54
2023-04-18T13:09:05.690Z,60.55
2023-04-18T13:11:32.978Z,60.29
2023-04-18T13:14:00.361Z,60.07
2023-04-18T13:16:27.829Z,60.24
2023-04-18T13:18:55.015Z,59.89
2023-04-18T13:21:25.225Z,59.86
2023-04-18T13:23:52.341Z,59.64
2023-04-18T13:26:19.755Z,59.76
2023-04-18T13:28:46.899Z,59.37
2023-04-18T13:31:16.332Z,58.66
2023-04-18T13:33:44.097Z,58.83
2023-04-18T13:36:11.289Z,58.57
2023-04-18T13:38:38.884Z,58.23
2023-04-18T13:41:12.435Z,58.18
2023-04-18T13:43:40.560Z,57.86
2023-04-18T13:46:07.751Z,57.70
2023-04-18T13:48:34.855Z,57.78
2023-04-18T13:51:02.628Z,57.42
2023-04-18T13:53:31.124Z,57.79
2023-04-18T13:55:58.993Z,57.71
2023-04-18T13:58:26.251Z,57.27
2023-04-18T14:00:53.998Z,57.38
2023-04-18T14:03:21.391Z,57.23
2023-04-18T14:05:48.681Z,57.28
2023-04-18T14:08:16.019Z,57.30
2023-04-18T14:10:43.135Z,56.75
2023-04-18T14:13:10.234Z,56.89
2023-04-18T14:15:37.328Z,56.78
2023-04-18T14:18:04.730Z,56.52
2023-04-18T14:20:34.389Z,55.88
2023-04-18T14:23:02.191Z,56.23
2023-04-18T14:25:30.527Z,56.00
2023-04-18T14:28:09.840Z,55.77
2023-04-18T14:30:38.272Z,55.48
2023-04-18T14:33:05.891Z,55.56
2023-04-18T14:35:33.543Z,55.19
2023-04-18T14:38:00.735Z,55.44
2023-04-18T14:40:27.997Z,55.62
2023-04-18T14:42:55.059Z,55.18
2023-04-18T14:45:22.756Z,54.81
2023-04-18T14:47:49.987Z,55.35
2023-04-18T14:50:17.652Z,55.03
2023-04-18T14:52:45.882Z,55.21
2023-04-18T14:55:13.758Z,55.22
2023-04-18T14:57:40.890Z,55.16
2023-04-18T15:00:12.721Z,54.91
2023-04-18T15:02:40.540Z,54.78
2023-04-18T15:05:09.208Z,54.77
2023-04-18T15:07:37.950Z,54.70
2023-04-18T15:10:06.170Z,54.67
2023-04-18T15:12:33.471Z,54.56
2023-04-18T15:15:01.418Z,54.26
2023-04-18T15:17:29.273Z,54.23
2023-04-18T15:19:58.261Z,54.01
2023-04-18T15:22:25.804Z,54.34
2023-04-18T15:24:52.967Z,53.77
2023-04-18T15:27:20.304Z,54.33
2023-04-18T15:29:47.446Z,54.14
2023-04-18T15:32:14.782Z,53.94
2023-04-18T15:34:41.922Z,53.96
2023-04-18T15:37:09.535Z,54.35
2023-04-18T15:39:37.070Z,53.99
2023-04-18T15:42:04.201Z,54.52
2023-04-18T15:44:31.338Z,54.20
2023-04-18T15:47:01.228Z,54.82
2023-04-18T15:49:28.832Z,54.38
2023-04-18T15:51:56.986Z,53.89
2023-04-18T15:54:24.103Z,54.02
2023-04-18T15:56:51.280Z,53.97
2023-04-18T15:59:18.382Z,53.78
2023-04-18T16:01:46.276Z,53.88
2023-04-18T16:04:13.843Z,53.76
2023-04-18T16:06:41.480Z,53.84
2023-04-18T16:09:08.644Z,53.53
2023-04-18T16:11:35.790Z,53.91
2023-04-18T16:14:02.981Z,53.97
2023-04-18T16:16:30.235Z,53.95
2023-04-18T16:18:57.632Z,53.73
2023-04-18T16:21:24.801Z,53.60
2023-04-18T16:23:51.984Z,53.62
2023-04-18T16:26:19.081Z,53.73
2023-04-18T16:28:47.301Z,53.62
2023-04-18T16:31:14.786Z,53.45
2023-04-18T16:33:42.100Z,53.58
2023-04-18T16:36:09.729Z,53.90
2023-04-18T16:38:36.833Z,53.87
2023-04-18T16:41:03.987Z,53.78
2023-04-18T16:43:31.237Z,53.82
2023-04-18T16:46:00.463Z,53.71
2023-04-18T16:48:29.137Z,53.48
2023-04-18T16:50:57.026Z,53.61
2023-04-18T16:53:24.736Z,53.82
2023-04-18T16:55:53.238Z,53.77
2023-04-18T16:58:21.324Z,53.71
2023-04-18T17:00:48.473Z,53.70
2023-04-18T17:03:15.755Z,54.05
2023-04-18T17:05:42.970Z,54.18
2023-04-18T17:08:10.097Z,54.45
2023-04-18T17:10:37.192Z,54.64
2023-04-18T17:13:04.850Z,54.61
2023-04-18T17:15:32.003Z,55.00
2023-04-18T17:18:01.355Z,55.19
2023-04-18T17:20:29.029Z,55.36
2023-04-18T17:22:57.714Z,55.48
2023-04-18T17:25:24.816Z,55.56
2023-04-18T17:27:51.878Z,55.35
2023-04-18T17:30:19.219Z,55.55
2023-04-18T17:32:46.418Z,55.57
2023-04-18T17:35:14.839Z,55.40
2023-04-18T17:37:42.927Z,55.81
2023-04-18T17:40:11.822Z,55.80
2023-04-18T17:42:39.052Z,56.05
2023-04-18T17:45:07.808Z,55.93
2023-04-18T17:47:36.809Z,56.13
2023-04-18T17:50:04.895Z,56.38
2023-04-18T17:52:32.179Z,56.26
2023-04-18T17:55:01.807Z,56.68
2023-04-18T17:57:30.680Z,56.59
2023-04-18T17:59:57.841Z,56.88
2023-04-18T18:02:25.213Z,56.91
2023-04-18T18:04:53.068Z,57.05
2023-04-18T18:07:20.329Z,57.19
2023-04-18T18:09:47.424Z,57.27
2023-04-18T18:12:14.726Z,57.36
2023-04-18T18:14:41.868Z,57.43
2023-04-18T18:17:09.160Z,57.85
2023-04-18T18:19:36.855Z,57.89
2023-04-18T18:22:04.031Z,58.03
2023-04-18T18:24:31.280Z,58.06
2023-04-18T18:26:59.087Z,58.19
2023-04-18T18:29:26.328Z,58.08
2023-04-18T18:31:53.484Z,58.67
2023-04-18T18:34:21.669Z,58.57
2023-04-18T18:36:48.854Z,58.91
2023-04-18T18:39:16.793Z,58.92
2023-04-18T18:41:44.057Z,58.92
2023-04-18T18:44:11.845Z,59.17
2023-04-18T18:46:39.020Z,59.21
2023-04-18T18:49:06.124Z,59.49
2023-04-18T18:51:33.235Z,59.42
2023-04-18T18:54:00.359Z,59.62
2023-04-18T18:56:27.844Z,59.83
2023-04-18T18:58:55.831Z,59.94
2023-04-18T19:01:23.291Z,59.83
2023-04-18T19:03:50.788Z,60.01
2023-04-18T19:06:18.217Z,60.26
2023-04-18T19:08:45.441Z,60.09
2023-04-18T19:11:12.949Z,60.16
2023-04-18T19:13:40.093Z,60.57
2023-04-18T19:16:07.257Z,60.50
2023-04-18T19:18:34.421Z,60.79
2023-04-18T19:21:02.508Z,60.89
2023-04-18T19:23:31.107Z,61.02
2023-04-18T19:25:58.776Z,60.93
2023-04-18T19:28:26.269Z,61.05
2023-04-18T19:30:53.597Z,61.07
2023-04-18T19:33:21.456Z,61.10
2023-04-18T19:35:48.564Z,61.40
2023-04-18T19:38:15.828Z,61.36
2023-04-18T19:40:43.127Z,61.56
2023-04-18T19:43:10.486Z,61.47
2023-04-18T19:45:38.657Z,61.65
2023-04-18T19:48:06.320Z,61.55
2023-04-18T19:50:33.429Z,61.75
2023-04-18T19:53:00.528Z,61.85
2023-04-18T19:55:29.924Z,61.77
2023-04-18T19:57:57.150Z,61.92
2023-04-18T20:00:24.569Z,61.85
2023-04-18T20:02:52.010Z,62.18
2023-04-18T20:05:19.396Z,62.07
2023-04-18T20:07:46.630Z,62.21
2023-04-18T20:10:13.818Z,62.43
2023-04-18T20:12:40.891Z,62.29
2023-04-18T20:15:08.782Z,62.47
2023-04-18T20:17:35.893Z,62.43
2023-04-18T20:20:03.438Z,62.59
2023-04-18T20:22:32.551Z,62.83
2023-04-18T20:24:59.991Z,62.84
2023-04-18T20:27:27.746Z,63.17
2023-04-18T20:29:57.142Z,62.93
2023-04-18T20:32:24.770Z,63.08
2023-04-18T20:34:52.014Z,63.19
2023-04-18T20:37:20.143Z,63.29
2023-04-18T20:39:47.724Z,63.38
2023-04-18T20:42:14.918Z,63.58
2023-04-18T20:44:44.318Z,63.35
2023-04-18T20:47:12.754Z,63.48
2023-04-18T20:49:41.103Z,63.52
2023-04-18T20:52:09.775Z,63.54
2023-04-18T20:54:37.029Z,63.58
2023-04-18T20:57:04.203Z,63.59
2023-04-18T20:59:31.278Z,63.75
2023-04-18T21:01:58.986Z,63.77
2023-04-18T21:04:27.030Z,63.87
2023-04-18T21:06:54.518Z,63.85
2023-04-18T21:09:21.651Z,64.15
2023-04-18T21:11:48.826Z,64.11
2023-04-18T21:14:17.363Z,64.32
2023-04-18T21:16:44.646Z,64.38
2023-04-18T21:19:11.764Z,64.40
2023-04-18T21:21:38.886Z,64.59
2023-04-18T21:24:06.241Z,64.50
2023-04-18T21:26:33.344Z,64.68
2023-04-18T21:29:04.958Z,64.69
2023-04-18T21:31:34.575Z,64.93
2023-04-18T21:34:04.464Z,64.90
2023-04-18T21:36:32.246Z,64.99
2023-04-18T21:39:01.328Z,64.85
2023-04-18T21:41:28.992Z,64.92
2023-04-18T21:43:56.324Z,64.95
2023-04-18T21:46:23.602Z,65.13
2023-04-18T21:48:51.270Z,65.14
2023-04-18T21:51:18.457Z,65.34
2023-04-18T21:53:45.613Z,65.53
2023-04-18T21:56:12.781Z,65.51
2023-04-18T21:58:39.884Z,65.48
2023-04-18T22:01:07.043Z,65.62
2023-04-18T22:03:34.618Z,65.73
2023-04-18T22:06:02.254Z,65.84
2023-04-18T22:08:31.199Z,65.82
2023-04-18T22:11:00.457Z,65.77
2023-04-18T22:13:30.334Z,65.97
2023-04-18T22:15:58.700Z,66.02
2023-04-18T22:18:26.006Z,65.99
2023-04-18T22:20:54.014Z,65.99
2023-04-18T22:23:21.094Z,66.16
2023-04-18T22:25:48.757Z,66.24
2023-04-18T22:28:16.114Z,66.37
2023-04-18T22:30:43.267Z,66.38
2023-04-18T22:33:10.362Z,66.42
2023-04-18T22:35:37.535Z,66.49
2023-04-18T22:38:04.741Z,66.63
2023-04-18T22:40:31.820Z,66.71
2023-04-18T22:42:59.282Z,66.91
2023-04-18T22:45:26.477Z,66.98
2023-04-18T22:47:53.679Z,67.18
2023-04-18T22:50:21.017Z,67.20
2023-04-18T22:52:48.330Z,67.41
2023-04-18T22:55:16.665Z,67.35
2023-04-18T22:57:43.743Z,67.36
2023-04-18T23:00:11.830Z,67.63
2023-04-18T23:02:39.053Z,67.61
2023-04-18T23:05:08.187Z,67.77
2023-04-18T23:07:35.370Z,67.93
2023-04-18T23:10:06.702Z,67.96
2023-04-18T23:12:34.052Z,68.21
2023-04-18T23:15:01.357Z,68.16
2023-04-18T23:17:29.212Z,68.10
2023-04-18T23:19:56.386Z,68.39
2023-04-18T23:22:24.554Z,68.53
2023-04-18T23:24:51.969Z,68.41
2023-04-18T23:27:19.638Z,68.68
2023-04-18T23:29:50.228Z,68.50
2023-04-18T23:32:17.365Z,68.69
2023-04-18T23:34:46.271Z,68.78
2023-04-18T23:37:13.336Z,69.03
2023-04-18T23:39:40.441Z,68.94
2023-04-18T23:42:07.661Z,69.08
2023-04-18T23:44:34.751Z,69.07
2023-04-18T23:47:01.966Z,69.20
2023-04-18T23:49:29.833Z,69.54
2023-04-18T23:51:57.036Z,69.62
2023-04-18T23:54:24.147Z,69.54
2023-04-18T23:56:51.270Z,69.63
2023-04-18T23:59:18.878Z,69.80
